Terminal Aerodrome Forecast
Issued by NWS

Home | Current Version | Previous Version | Graphics & Text | Print | Product List | Glossary On
Versions: 1 2 3 4 5 6 7 8 9 10 11 12 13 14 15 16
000
FTUS43 KMPX 231720
TAFAXN
TAF
KAXN 231720Z 2318/2418 18017G26KT P6SM SCT040 SCT250
     FM240300 18007KT P6SM SCT040 BKN250 PROB30 2403/2408 -TSRA
      BKN030CB
     FM240800 30006KT P6SM SCT015 BKN035
     FM241100 31009KT P6SM SKC=

USA.gov is the U.S. government's official web portal to all federal, state and local government web resources and services.